createdAt,value
2022-08-26T00:01:04.466Z,92.03
2022-08-26T00:03:36.276Z,91.28
2022-08-26T00:06:05.589Z,92.59
2022-08-26T00:08:34.122Z,92.67
2022-08-26T00:11:03.035Z,92.97
2022-08-26T00:13:31.257Z,93.33
2022-08-26T00:15:59.934Z,93.84
2022-08-26T00:18:28.208Z,93.54
2022-08-26T00:20:59.755Z,94.17
2022-08-26T00:23:34.990Z,94.02
2022-08-26T00:26:05.547Z,94.61
2022-08-26T00:28:36.651Z,94.31
2022-08-26T00:31:05.345Z,94.70
2022-08-26T00:33:35.009Z,94.32
2022-08-26T00:36:03.880Z,95.85
2022-08-26T00:38:33.343Z,95.50
2022-08-26T00:41:02.118Z,94.32
2022-08-26T00:43:46.066Z,95.32
2022-08-26T00:46:46.812Z,95.69
2022-08-26T00:49:26.000Z,95.58
2022-08-26T00:51:57.008Z,96.57
2022-08-26T00:54:30.672Z,97.23
2022-08-26T00:57:02.521Z,97.41
2022-08-26T00:59:33.270Z,97.47
2022-08-26T01:02:02.871Z,98.00
2022-08-26T01:04:35.034Z,97.94
2022-08-26T01:07:07.111Z,97.34
2022-08-26T01:09:36.388Z,98.36
2022-08-26T01:12:06.336Z,98.09
2022-08-26T01:14:36.863Z,97.36
2022-08-26T01:17:07.756Z,98.10
2022-08-26T01:19:45.935Z,97.29
2022-08-26T01:22:17.892Z,96.86
2022-08-26T01:24:47.333Z,98.05
2022-08-26T01:27:19.805Z,98.28
2022-08-26T01:29:50.393Z,97.82
2022-08-26T01:32:23.298Z,98.01
2022-08-26T01:34:52.811Z,98.30
2022-08-26T01:37:26.209Z,97.28
2022-08-26T01:39:56.630Z,96.90
2022-08-26T01:42:27.550Z,96.24
2022-08-26T01:45:09.123Z,95.69
2022-08-26T01:47:39.248Z,96.87
2022-08-26T01:50:12.606Z,97.07
2022-08-26T01:52:49.948Z,96.17
2022-08-26T01:55:33.137Z,96.37
2022-08-26T01:58:08.534Z,97.26
2022-08-26T02:00:38.334Z,97.32
2022-08-26T02:03:17.362Z,97.20
2022-08-26T02:05:51.439Z,96.57
2022-08-26T02:08:25.774Z,96.96
2022-08-26T02:10:55.376Z,96.91
2022-08-26T02:13:29.162Z,96.97
2022-08-26T02:16:00.581Z,98.77
2022-08-26T02:18:30.738Z,98.61
2022-08-26T02:21:00.415Z,99.24
2022-08-26T02:23:28.571Z,99.47
2022-08-26T02:26:04.376Z,99.38
2022-08-26T02:28:39.239Z,98.58
2022-08-26T02:31:08.566Z,99.15
2022-08-26T02:33:38.578Z,99.49
2022-08-26T02:36:12.131Z,99.35
2022-08-26T02:38:43.036Z,99.99
2022-08-26T02:41:11.363Z,99.52
2022-08-26T02:43:39.765Z,100.00
2022-08-26T02:46:08.161Z,100.00
2022-08-26T02:48:36.941Z,100.00
2022-08-26T02:51:05.680Z,99.71
2022-08-26T02:53:35.521Z,100.00
2022-08-26T02:56:07.800Z,100.00
2022-08-26T02:58:37.473Z,100.00
2022-08-26T03:01:06.194Z,100.00
2022-08-26T03:03:34.814Z,99.51
2022-08-26T03:06:03.416Z,99.92
2022-08-26T03:08:31.518Z,98.48
2022-08-26T03:11:01.673Z,98.09
2022-08-26T03:13:30.523Z,96.99
2022-08-26T03:16:01.978Z,97.53
2022-08-26T03:18:30.736Z,94.96
2022-08-26T03:21:04.473Z,93.80
2022-08-26T03:23:34.200Z,94.38
2022-08-26T03:26:03.024Z,96.51
2022-08-26T03:28:31.836Z,97.01
2022-08-26T03:31:00.410Z,97.38
2022-08-26T03:33:28.992Z,97.85
2022-08-26T03:35:57.679Z,97.27
2022-08-26T03:38:26.168Z,97.71
2022-08-26T03:40:55.574Z,98.14
2022-08-26T03:43:26.861Z,98.63
2022-08-26T03:45:55.511Z,100.00
2022-08-26T03:48:23.671Z,100.00
2022-08-26T03:50:52.008Z,100.00
2022-08-26T03:53:20.685Z,100.00
2022-08-26T03:55:48.881Z,100.00
2022-08-26T03:58:21.919Z,100.00
2022-08-26T04:00:55.759Z,100.00
2022-08-26T04:03:44.668Z,100.00
2022-08-26T04:06:13.127Z,100.00
2022-08-26T04:08:42.177Z,100.00
2022-08-26T04:11:20.059Z,100.00
2022-08-26T04:13:49.065Z,100.00
2022-08-26T04:16:20.486Z,100.00
2022-08-26T04:18:49.616Z,100.00
2022-08-26T04:21:17.838Z,100.00
2022-08-26T04:23:48.474Z,100.00
2022-08-26T04:26:19.455Z,100.00
2022-08-26T04:28:49.226Z,100.00
2022-08-26T04:31:19.449Z,100.00
2022-08-26T04:33:50.049Z,100.00
2022-08-26T04:36:20.159Z,100.00
2022-08-26T04:38:50.772Z,100.00
2022-08-26T04:41:20.672Z,100.00
2022-08-26T04:43:48.982Z,100.00
2022-08-26T04:46:22.791Z,100.00
2022-08-26T04:48:53.761Z,100.00
2022-08-26T04:51:28.071Z,100.00
2022-08-26T04:53:58.377Z,100.00
2022-08-26T04:56:28.637Z,99.40
2022-08-26T04:58:57.341Z,99.31
2022-08-26T05:01:25.503Z,99.41
2022-08-26T05:03:54.980Z,97.58
2022-08-26T05:06:23.695Z,97.45
2022-08-26T05:08:52.774Z,96.94
2022-08-26T05:11:22.054Z,96.28
2022-08-26T05:13:50.624Z,97.15
2022-08-26T05:16:19.532Z,97.28
2022-08-26T05:18:48.578Z,96.56
2022-08-26T05:21:20.037Z,98.19
2022-08-26T05:23:51.445Z,98.32
2022-08-26T05:26:23.086Z,98.96
2022-08-26T05:28:54.865Z,98.24
2022-08-26T05:31:27.421Z,98.97
2022-08-26T05:33:57.635Z,98.74
2022-08-26T05:36:28.731Z,95.70
2022-08-26T05:38:57.832Z,95.97
2022-08-26T05:41:34.279Z,95.47
2022-08-26T05:44:10.275Z,93.45
2022-08-26T05:46:40.180Z,93.09
2022-08-26T05:49:12.329Z,91.82
2022-08-26T05:51:45.296Z,89.13
2022-08-26T05:54:14.678Z,89.04
2022-08-26T05:56:53.643Z,89.14
2022-08-26T05:59:24.607Z,88.53
2022-08-26T06:01:55.266Z,89.29
2022-08-26T06:04:27.264Z,91.09
2022-08-26T06:06:56.633Z,90.02
2022-08-26T06:09:25.461Z,88.50
2022-08-26T06:11:53.698Z,87.06
2022-08-26T06:14:23.122Z,86.44
2022-08-26T06:16:52.209Z,85.45
2022-08-26T06:19:21.667Z,83.82
2022-08-26T06:21:54.061Z,81.76
2022-08-26T06:24:41.823Z,82.62
2022-08-26T06:27:13.884Z,84.17
2022-08-26T06:29:43.987Z,86.30
2022-08-26T06:32:12.631Z,84.64
2022-08-26T06:34:41.059Z,84.81
2022-08-26T06:37:10.082Z,87.52
2022-08-26T06:39:41.135Z,88.02
2022-08-26T06:42:11.889Z,87.96
2022-08-26T06:44:43.994Z,86.52
2022-08-26T06:47:13.462Z,82.68
2022-08-26T06:49:41.728Z,84.36
2022-08-26T06:52:10.108Z,78.88
2022-08-26T06:54:43.243Z,79.71
2022-08-26T06:57:13.201Z,78.28
2022-08-26T06:59:42.789Z,77.55
2022-08-26T07:02:13.489Z,77.11
2022-08-26T07:04:42.229Z,75.92
2022-08-26T07:07:15.128Z,75.59
2022-08-26T07:09:43.426Z,74.49
2022-08-26T07:12:11.765Z,73.62
2022-08-26T07:14:39.867Z,74.38
2022-08-26T07:17:14.009Z,74.86
2022-08-26T07:19:43.132Z,74.90
2022-08-26T07:22:11.779Z,73.04
2022-08-26T07:24:42.481Z,71.75
2022-08-26T07:27:15.738Z,72.41
2022-08-26T07:29:45.024Z,66.27
2022-08-26T07:32:15.897Z,65.61
2022-08-26T07:34:45.828Z,61.81
2022-08-26T07:37:14.168Z,61.84
2022-08-26T07:39:43.310Z,58.83
2022-08-26T07:42:15.354Z,54.09
2022-08-26T07:44:44.193Z,57.75
2022-08-26T07:47:24.706Z,53.81
2022-08-26T07:49:56.226Z,51.80
2022-08-26T07:52:27.697Z,49.55
2022-08-26T07:54:58.565Z,51.03
2022-08-26T07:57:28.348Z,50.86
2022-08-26T07:59:56.761Z,48.31
2022-08-26T08:02:26.249Z,49.27
2022-08-26T08:04:56.807Z,53.53
2022-08-26T08:07:25.775Z,49.70
2022-08-26T08:10:21.150Z,48.58
2022-08-26T08:12:50.101Z,47.72
2022-08-26T08:15:25.070Z,47.95
2022-08-26T08:17:55.599Z,46.87
2022-08-26T08:20:28.363Z,44.69
2022-08-26T08:22:57.093Z,43.63
2022-08-26T08:25:25.800Z,45.15
2022-08-26T08:27:55.011Z,44.16
2022-08-26T08:30:25.351Z,43.81
2022-08-26T08:32:54.094Z,44.15
2022-08-26T08:35:24.358Z,42.48
2022-08-26T08:37:57.185Z,42.04
2022-08-26T08:40:27.709Z,41.45
2022-08-26T08:42:59.413Z,41.71
2022-08-26T08:45:37.356Z,45.14
2022-08-26T08:48:09.119Z,42.84
2022-08-26T08:50:52.212Z,41.22
2022-08-26T08:53:43.115Z,40.57
2022-08-26T08:56:31.055Z,41.15
2022-08-26T08:59:16.512Z,42.78
2022-08-26T09:02:13.201Z,40.11
2022-08-26T09:05:07.177Z,40.16
2022-08-26T09:07:48.321Z,39.21
2022-08-26T09:10:22.556Z,39.41
2022-08-26T09:12:52.357Z,37.07
2022-08-26T09:15:30.591Z,40.62
2022-08-26T09:18:11.792Z,38.36
2022-08-26T09:20:55.496Z,35.65
2022-08-26T09:23:25.252Z,34.03
2022-08-26T09:25:59.998Z,39.67
2022-08-26T09:28:31.119Z,37.42
2022-08-26T09:31:22.003Z,37.06
2022-08-26T09:34:04.663Z,37.46
2022-08-26T09:36:48.590Z,37.13
2022-08-26T09:39:39.397Z,36.94
2022-08-26T09:42:22.704Z,36.43
2022-08-26T09:44:57.818Z,36.26
2022-08-26T09:47:53.231Z,37.06
2022-08-26T09:50:34.015Z,36.51
2022-08-26T09:53:32.313Z,39.24
2022-08-26T09:56:32.207Z,41.33
2022-08-26T09:59:02.002Z,35.54
2022-08-26T10:01:43.689Z,40.06
2022-08-26T10:04:19.927Z,36.99
2022-08-26T10:07:05.013Z,36.54
2022-08-26T10:09:43.384Z,34.42
2022-08-26T10:12:21.665Z,44.21
2022-08-26T10:14:56.309Z,38.65
2022-08-26T10:17:48.565Z,35.49
2022-08-26T10:20:26.259Z,39.66
2022-08-26T10:23:00.428Z,36.64
2022-08-26T10:25:46.730Z,35.89
2022-08-26T10:28:58.205Z,40.00
2022-08-26T10:31:40.610Z,37.45
2022-08-26T10:34:12.562Z,37.83
2022-08-26T10:37:16.269Z,34.50
2022-08-26T10:40:07.728Z,37.07
2022-08-26T10:42:41.819Z,40.71
2022-08-26T10:45:16.957Z,40.14
2022-08-26T10:48:03.359Z,36.98
2022-08-26T10:50:37.297Z,39.43
2022-08-26T10:53:12.073Z,34.04
2022-08-26T10:55:53.782Z,42.97
2022-08-26T10:58:41.034Z,32.55
2022-08-26T11:01:44.013Z,37.57
2022-08-26T11:04:23.172Z,34.70
2022-08-26T11:07:31.806Z,35.70
2022-08-26T11:10:22.611Z,36.70
2022-08-26T11:12:59.710Z,35.27
2022-08-26T11:15:29.438Z,36.36
2022-08-26T11:18:04.155Z,37.10
2022-08-26T11:20:41.526Z,33.46
2022-08-26T11:23:09.882Z,43.00
2022-08-26T11:25:57.186Z,36.26
2022-08-26T11:28:52.310Z,36.77
2022-08-26T11:31:26.989Z,34.90
2022-08-26T11:34:07.145Z,38.72
2022-08-26T11:36:42.154Z,36.84
2022-08-26T11:39:21.401Z,38.29
2022-08-26T11:41:53.091Z,35.15
2022-08-26T11:44:26.587Z,34.36
2022-08-26T11:47:00.782Z,34.46
2022-08-26T11:49:31.652Z,36.83
2022-08-26T11:52:08.752Z,35.25
2022-08-26T11:54:37.152Z,38.94
2022-08-26T11:57:09.522Z,37.25
2022-08-26T11:59:42.515Z,36.82
2022-08-26T12:02:15.424Z,36.73
2022-08-26T12:04:48.942Z,36.24
2022-08-26T12:07:23.886Z,36.93
2022-08-26T12:09:59.177Z,37.55
2022-08-26T12:12:34.974Z,35.83
2022-08-26T12:15:06.685Z,36.09
2022-08-26T12:17:34.939Z,36.03
2022-08-26T12:20:16.903Z,38.34
2022-08-26T12:22:48.109Z,36.60
2022-08-26T12:25:24.330Z,38.67
2022-08-26T12:27:54.027Z,39.01
2022-08-26T12:30:24.465Z,38.05
2022-08-26T12:33:22.482Z,36.67
2022-08-26T12:35:56.426Z,33.67
2022-08-26T12:38:27.315Z,33.97
2022-08-26T12:40:57.027Z,32.38
2022-08-26T12:43:45.969Z,34.25
2022-08-26T12:46:24.385Z,33.71
2022-08-26T12:48:52.694Z,33.02
2022-08-26T12:51:27.511Z,32.77
2022-08-26T12:53:56.385Z,34.88
2022-08-26T12:56:33.972Z,35.26
2022-08-26T12:59:26.465Z,32.09
2022-08-26T13:01:55.255Z,32.69
2022-08-26T13:04:42.144Z,31.36
2022-08-26T13:07:13.477Z,34.57
2022-08-26T13:09:41.615Z,33.50
2022-08-26T13:12:11.696Z,32.46
2022-08-26T13:14:40.562Z,33.72
2022-08-26T13:17:09.107Z,31.18
2022-08-26T13:19:37.581Z,31.99
2022-08-26T13:22:07.584Z,31.17
2022-08-26T13:24:41.161Z,33.94
2022-08-26T13:27:12.228Z,34.00
2022-08-26T13:29:40.522Z,32.89
2022-08-26T13:32:09.540Z,33.11
2022-08-26T13:34:39.357Z,32.73
2022-08-26T13:37:07.450Z,34.94
2022-08-26T13:39:35.700Z,34.29
2022-08-26T13:42:04.397Z,34.78
2022-08-26T13:44:32.584Z,34.82
2022-08-26T13:47:00.727Z,32.83
2022-08-26T13:49:29.335Z,33.12
2022-08-26T13:51:57.368Z,35.79
2022-08-26T13:54:25.624Z,34.67
2022-08-26T13:56:54.233Z,34.03
2022-08-26T13:59:22.425Z,33.56
2022-08-26T14:01:50.710Z,33.63
2022-08-26T14:04:27.044Z,33.99
2022-08-26T14:06:55.797Z,33.52
2022-08-26T14:09:24.661Z,35.25
2022-08-26T14:11:54.599Z,34.53
2022-08-26T14:14:23.687Z,34.76
2022-08-26T14:16:59.364Z,37.10
2022-08-26T14:19:32.127Z,36.80
2022-08-26T14:22:01.418Z,38.15
2022-08-26T14:24:29.965Z,37.74
2022-08-26T14:26:58.697Z,37.88
2022-08-26T14:29:27.257Z,36.79
2022-08-26T14:31:57.242Z,36.04
2022-08-26T14:34:28.789Z,35.80
2022-08-26T14:36:57.223Z,34.04
2022-08-26T14:39:25.428Z,35.13
2022-08-26T14:41:56.707Z,35.80
2022-08-26T14:44:30.556Z,34.41
2022-08-26T14:47:01.466Z,36.70
2022-08-26T14:49:31.404Z,38.03
2022-08-26T14:51:59.624Z,38.05
2022-08-26T14:54:29.493Z,36.08
2022-08-26T14:56:59.185Z,36.50
2022-08-26T14:59:31.069Z,35.69
2022-08-26T15:02:00.845Z,35.21
2022-08-26T15:04:29.443Z,36.31
2022-08-26T15:06:59.756Z,34.42
2022-08-26T15:09:29.566Z,34.67
2022-08-26T15:11:57.989Z,35.57
2022-08-26T15:14:28.613Z,34.82
2022-08-26T15:16:59.472Z,37.81
2022-08-26T15:19:27.971Z,36.84
2022-08-26T15:21:56.780Z,37.80
2022-08-26T15:24:26.871Z,37.61
2022-08-26T15:26:55.320Z,37.17
2022-08-26T15:29:26.696Z,39.14
2022-08-26T15:31:57.200Z,39.13
2022-08-26T15:34:26.644Z,39.51
2022-08-26T15:36:59.771Z,38.96
2022-08-26T15:39:27.904Z,39.48
2022-08-26T15:41:56.343Z,40.73
2022-08-26T15:44:26.203Z,39.72
2022-08-26T15:46:58.417Z,40.36
2022-08-26T15:49:27.732Z,41.40
2022-08-26T15:51:55.871Z,40.22
2022-08-26T15:54:24.553Z,42.74
2022-08-26T15:56:53.806Z,42.79
2022-08-26T15:59:22.596Z,43.05
2022-08-26T16:01:52.137Z,43.24
2022-08-26T16:04:21.128Z,43.71
2022-08-26T16:06:51.482Z,44.00
2022-08-26T16:09:24.322Z,43.54
2022-08-26T16:11:55.075Z,43.87
2022-08-26T16:14:24.080Z,44.52
2022-08-26T16:16:53.159Z,44.13
2022-08-26T16:19:22.094Z,45.16
2022-08-26T16:21:51.482Z,43.63
2022-08-26T16:24:28.438Z,44.66
2022-08-26T16:26:58.502Z,45.26
2022-08-26T16:29:27.721Z,44.40
2022-08-26T16:31:56.010Z,45.20
2022-08-26T16:34:24.283Z,44.97
2022-08-26T16:36:53.147Z,45.56
2022-08-26T16:39:21.240Z,46.42
2022-08-26T16:41:49.382Z,47.18
2022-08-26T16:44:17.872Z,47.41
2022-08-26T16:46:49.171Z,46.88
2022-08-26T16:49:17.870Z,47.42
2022-08-26T16:51:46.849Z,47.79
2022-08-26T16:54:15.074Z,48.07
2022-08-26T16:56:43.668Z,47.24
2022-08-26T16:59:11.895Z,46.36
2022-08-26T17:01:40.075Z,47.19
2022-08-26T17:04:08.673Z,47.02
2022-08-26T17:06:37.399Z,47.32
2022-08-26T17:09:06.179Z,47.68
2022-08-26T17:11:35.354Z,47.11
2022-08-26T17:14:04.430Z,48.08
2022-08-26T17:16:32.584Z,48.14
2022-08-26T17:19:01.507Z,47.54
2022-08-26T17:21:31.683Z,48.54
2022-08-26T17:24:00.518Z,48.35
2022-08-26T17:26:28.910Z,48.23
2022-08-26T17:28:59.091Z,47.98
2022-08-26T17:31:27.413Z,48.00
2022-08-26T17:33:56.042Z,48.12
2022-08-26T17:36:28.127Z,49.29
2022-08-26T17:38:58.482Z,47.59
2022-08-26T17:41:27.442Z,47.80
2022-08-26T17:43:55.894Z,48.28
2022-08-26T17:46:24.780Z,48.07
2022-08-26T17:48:53.033Z,47.36
2022-08-26T17:51:23.424Z,47.64
2022-08-26T17:53:52.792Z,47.96
2022-08-26T17:56:25.617Z,48.92
2022-08-26T17:58:56.873Z,50.28
2022-08-26T18:01:27.237Z,50.46
2022-08-26T18:04:00.280Z,51.40
2022-08-26T18:06:30.647Z,51.69
2022-08-26T18:09:00.758Z,51.92
2022-08-26T18:11:31.411Z,52.79
2022-08-26T18:14:00.428Z,54.38
2022-08-26T18:16:31.691Z,53.49
2022-08-26T18:19:00.998Z,54.03
2022-08-26T18:21:29.209Z,56.10
2022-08-26T18:23:57.506Z,55.89
2022-08-26T18:26:32.380Z,54.99
2022-08-26T18:29:01.146Z,56.00
2022-08-26T18:31:31.642Z,57.28
2022-08-26T18:34:01.719Z,55.99
2022-08-26T18:36:33.367Z,55.62
2022-08-26T18:39:04.137Z,53.03
2022-08-26T18:41:38.732Z,54.28
2022-08-26T18:44:09.472Z,55.54
2022-08-26T18:46:40.299Z,56.85
2022-08-26T18:49:10.031Z,57.35
2022-08-26T18:51:38.445Z,59.56
2022-08-26T18:54:07.730Z,60.10
2022-08-26T18:56:37.664Z,57.39
2022-08-26T18:59:08.377Z,59.12
2022-08-26T19:01:40.494Z,57.92
2022-08-26T19:04:14.096Z,58.81
2022-08-26T19:06:47.781Z,59.99
2022-08-26T19:09:18.034Z,60.95
2022-08-26T19:11:47.041Z,59.60
2022-08-26T19:14:18.784Z,60.10
2022-08-26T19:16:49.131Z,56.36
2022-08-26T19:19:17.295Z,58.71
2022-08-26T19:21:46.978Z,60.53
2022-08-26T19:24:17.668Z,60.76
2022-08-26T19:26:49.233Z,60.88
2022-08-26T19:29:22.502Z,61.57
2022-08-26T19:31:50.727Z,61.53
2022-08-26T19:34:20.769Z,62.36
2022-08-26T19:36:50.512Z,61.81
2022-08-26T19:39:19.820Z,62.78
2022-08-26T19:41:48.039Z,63.32
2022-08-26T19:44:39.474Z,62.33
2022-08-26T19:47:09.918Z,61.55
2022-08-26T19:49:39.013Z,60.79
2022-08-26T19:52:08.250Z,61.13
2022-08-26T19:54:36.592Z,60.39
2022-08-26T19:57:05.664Z,61.29
2022-08-26T19:59:33.916Z,60.62
2022-08-26T20:02:07.115Z,60.76
2022-08-26T20:04:39.208Z,60.49
2022-08-26T20:07:09.089Z,58.70
2022-08-26T20:09:37.736Z,59.38
2022-08-26T20:12:07.129Z,58.44
2022-08-26T20:14:36.516Z,59.78
2022-08-26T20:17:06.278Z,59.13
2022-08-26T20:19:53.558Z,58.06
2022-08-26T20:22:22.233Z,58.06
2022-08-26T20:24:50.640Z,60.44
2022-08-26T20:27:19.259Z,60.04
2022-08-26T20:29:47.481Z,61.01
2022-08-26T20:32:15.968Z,61.05
2022-08-26T20:34:44.103Z,59.35
2022-08-26T20:37:12.290Z,61.02
2022-08-26T20:39:41.430Z,63.56
2022-08-26T20:42:20.528Z,62.85
2022-08-26T20:44:54.397Z,61.81
2022-08-26T20:47:23.479Z,64.97
2022-08-26T20:49:52.527Z,65.28
2022-08-26T20:52:20.834Z,65.14
2022-08-26T20:54:49.149Z,64.86
2022-08-26T20:57:17.594Z,64.63
2022-08-26T20:59:45.676Z,63.71
2022-08-26T21:02:14.186Z,62.05
2022-08-26T21:04:42.627Z,62.53
2022-08-26T21:07:10.855Z,62.50
2022-08-26T21:09:38.959Z,61.70
2022-08-26T21:12:07.580Z,62.50
2022-08-26T21:14:35.647Z,62.16
2022-08-26T21:17:04.846Z,63.27
2022-08-26T21:19:34.044Z,63.68
2022-08-26T21:22:02.120Z,63.64
2022-08-26T21:24:30.322Z,64.54
2022-08-26T21:26:59.067Z,63.43
2022-08-26T21:29:27.150Z,62.54
2022-08-26T21:31:55.407Z,62.24
2022-08-26T21:34:24.022Z,61.86
2022-08-26T21:36:52.056Z,63.09
2022-08-26T21:39:20.279Z,62.36
2022-08-26T21:41:48.778Z,61.65
2022-08-26T21:44:17.818Z,62.18
2022-08-26T21:46:46.699Z,62.29
2022-08-26T21:49:16.140Z,61.43
2022-08-26T21:51:47.721Z,62.43
2022-08-26T21:54:18.061Z,65.13
2022-08-26T21:56:47.534Z,65.20
2022-08-26T21:59:18.513Z,66.31
2022-08-26T22:01:47.063Z,67.73
2022-08-26T22:04:16.451Z,65.73
2022-08-26T22:06:50.157Z,65.10
2022-08-26T22:09:22.677Z,64.61
2022-08-26T22:11:52.187Z,65.74
2022-08-26T22:14:30.509Z,64.81
2022-08-26T22:16:59.814Z,63.87
2022-08-26T22:19:31.797Z,66.11
2022-08-26T22:22:03.907Z,66.05
2022-08-26T22:24:32.715Z,64.29
2022-08-26T22:27:00.869Z,63.42
2022-08-26T22:29:29.303Z,64.64
2022-08-26T22:31:57.771Z,64.36
2022-08-26T22:34:26.296Z,63.92
2022-08-26T22:36:54.746Z,61.66
2022-08-26T22:39:25.301Z,61.99
2022-08-26T22:41:54.485Z,64.58
2022-08-26T22:44:23.866Z,65.48
2022-08-26T22:46:57.001Z,63.63
2022-08-26T22:49:25.799Z,64.09
2022-08-26T22:51:54.470Z,65.79
2022-08-26T22:54:22.609Z,64.28
2022-08-26T22:56:51.141Z,64.93
2022-08-26T22:59:19.313Z,63.71
2022-08-26T23:01:47.776Z,64.94
2022-08-26T23:04:16.310Z,66.47
2022-08-26T23:06:47.495Z,67.89
2022-08-26T23:09:18.719Z,66.75
2022-08-26T23:11:48.413Z,66.37
2022-08-26T23:14:18.408Z,64.52
2022-08-26T23:16:47.819Z,66.59
2022-08-26T23:19:22.891Z,67.02
2022-08-26T23:21:51.129Z,66.80
2022-08-26T23:24:19.437Z,63.67
2022-08-26T23:26:47.653Z,63.60
2022-08-26T23:29:16.248Z,63.43
2022-08-26T23:31:44.709Z,63.95
2022-08-26T23:34:32.389Z,64.57
2022-08-26T23:37:02.212Z,64.90
2022-08-26T23:39:36.235Z,61.72
2022-08-26T23:42:06.613Z,64.60
2022-08-26T23:44:35.034Z,64.38
2022-08-26T23:47:05.068Z,66.37
2022-08-26T23:49:33.988Z,63.23
2022-08-26T23:52:22.078Z,66.67
2022-08-26T23:54:52.377Z,65.14
2022-08-26T23:57:23.004Z,65.24
2022-08-26T23:59:51.783Z,66.66
